sensor_id;sensor_type;location;lat;lon;timestamp;P1;durP1;ratioP1;P2;durP2;ratioP2
85457;SDS011;75848;42.706;23.292;2024-02-26T00:00:00;22.60;;;13.57;;
85457;SDS011;75848;42.706;23.292;2024-02-26T00:02:25;31.55;;;15.00;;
85457;SDS011;75848;42.706;23.292;2024-02-26T00:04:51;25.98;;;15.13;;
85457;SDS011;75848;42.706;23.292;2024-02-26T00:07:16;33.50;;;15.05;;
85457;SDS011;75848;42.706;23.292;2024-02-26T00:09:42;32.28;;;16.58;;
85457;SDS011;75848;42.706;23.292;2024-02-26T00:12:08;30.27;;;16.90;;
85457;SDS011;75848;42.706;23.292;2024-02-26T00:14:33;42.22;;;19.67;;
85457;SDS011;75848;42.706;23.292;2024-02-26T00:16:59;37.78;;;19.05;;
85457;SDS011;75848;42.706;23.292;2024-02-26T00:19:25;36.03;;;19.83;;
85457;SDS011;75848;42.706;23.292;2024-02-26T00:21:51;31.60;;;17.27;;
85457;SDS011;75848;42.706;23.292;2024-02-26T00:24:18;38.38;;;19.10;;
85457;SDS011;75848;42.706;23.292;2024-02-26T00:26:44;41.78;;;19.40;;
85457;SDS011;75848;42.706;23.292;2024-02-26T00:29:10;41.28;;;20.55;;
85457;SDS011;75848;42.706;23.292;2024-02-26T00:31:36;38.40;;;19.30;;
85457;SDS011;75848;42.706;23.292;2024-02-26T00:34:03;34.35;;;19.08;;
85457;SDS011;75848;42.706;23.292;2024-02-26T00:36:28;42.08;;;18.90;;
85457;SDS011;75848;42.706;23.292;2024-02-26T00:38:55;40.72;;;20.52;;
85457;SDS011;75848;42.706;23.292;2024-02-26T00:41:21;31.95;;;18.10;;
85457;SDS011;75848;42.706;23.292;2024-02-26T00:43:48;35.78;;;18.77;;
85457;SDS011;75848;42.706;23.292;2024-02-26T00:46:13;36.05;;;17.35;;
85457;SDS011;75848;42.706;23.292;2024-02-26T00:48:39;31.90;;;17.20;;
85457;SDS011;75848;42.706;23.292;2024-02-26T00:51:05;31.58;;;17.42;;
85457;SDS011;75848;42.706;23.292;2024-02-26T00:53:31;32.38;;;17.55;;
85457;SDS011;75848;42.706;23.292;2024-02-26T00:55:57;36.10;;;18.40;;
85457;SDS011;75848;42.706;23.292;2024-02-26T00:58:24;34.20;;;18.25;;
85457;SDS011;75848;42.706;23.292;2024-02-26T01:00:50;33.78;;;17.27;;
85457;SDS011;75848;42.706;23.292;2024-02-26T01:03:17;28.52;;;16.00;;
85457;SDS011;75848;42.706;23.292;2024-02-26T01:05:44;32.03;;;16.05;;
85457;SDS011;75848;42.706;23.292;2024-02-26T01:08:09;31.10;;;17.67;;
85457;SDS011;75848;42.706;23.292;2024-02-26T01:10:35;29.00;;;15.82;;
85457;SDS011;75848;42.706;23.292;2024-02-26T01:13:01;31.48;;;16.65;;
85457;SDS011;75848;42.706;23.292;2024-02-26T01:15:27;32.83;;;17.77;;
85457;SDS011;75848;42.706;23.292;2024-02-26T01:17:52;34.15;;;17.35;;
85457;SDS011;75848;42.706;23.292;2024-02-26T01:20:20;31.40;;;17.60;;
85457;SDS011;75848;42.706;23.292;2024-02-26T01:22:45;31.80;;;17.60;;
85457;SDS011;75848;42.706;23.292;2024-02-26T01:25:11;29.42;;;17.88;;
85457;SDS011;75848;42.706;23.292;2024-02-26T01:27:38;33.78;;;16.90;;
85457;SDS011;75848;42.706;23.292;2024-02-26T01:30:04;31.02;;;16.50;;
85457;SDS011;75848;42.706;23.292;2024-02-26T01:32:31;30.27;;;17.85;;
85457;SDS011;75848;42.706;23.292;2024-02-26T01:34:57;35.13;;;17.15;;
85457;SDS011;75848;42.706;23.292;2024-02-26T01:37:24;34.10;;;16.73;;
85457;SDS011;75848;42.706;23.292;2024-02-26T01:39:50;34.17;;;16.75;;
85457;SDS011;75848;42.706;23.292;2024-02-26T01:42:15;32.35;;;18.00;;
85457;SDS011;75848;42.706;23.292;2024-02-26T01:44:41;32.65;;;16.40;;
85457;SDS011;75848;42.706;23.292;2024-02-26T01:47:07;31.23;;;15.95;;
85457;SDS011;75848;42.706;23.292;2024-02-26T01:49:35;33.90;;;15.57;;
85457;SDS011;75848;42.706;23.292;2024-02-26T01:52:01;31.92;;;15.40;;
85457;SDS011;75848;42.706;23.292;2024-02-26T01:54:29;28.45;;;14.73;;
85457;SDS011;75848;42.706;23.292;2024-02-26T01:56:55;25.58;;;15.57;;
85457;SDS011;75848;42.706;23.292;2024-02-26T01:59:22;27.38;;;15.07;;
85457;SDS011;75848;42.706;23.292;2024-02-26T02:01:48;23.25;;;13.80;;
85457;SDS011;75848;42.706;23.292;2024-02-26T02:04:19;28.75;;;13.75;;
85457;SDS011;75848;42.706;23.292;2024-02-26T02:06:47;24.88;;;14.48;;
85457;SDS011;75848;42.706;23.292;2024-02-26T02:09:13;26.83;;;13.90;;
85457;SDS011;75848;42.706;23.292;2024-02-26T02:11:39;24.65;;;12.55;;
85457;SDS011;75848;42.706;23.292;2024-02-26T02:14:04;26.63;;;13.52;;
85457;SDS011;75848;42.706;23.292;2024-02-26T02:16:32;24.38;;;13.63;;
85457;SDS011;75848;42.706;23.292;2024-02-26T02:18:58;26.35;;;13.18;;
85457;SDS011;75848;42.706;23.292;2024-02-26T02:21:24;26.25;;;13.35;;
85457;SDS011;75848;42.706;23.292;2024-02-26T02:23:50;25.52;;;13.68;;
85457;SDS011;75848;42.706;23.292;2024-02-26T02:26:16;22.70;;;12.18;;
85457;SDS011;75848;42.706;23.292;2024-02-26T02:28:42;26.67;;;12.68;;
85457;SDS011;75848;42.706;23.292;2024-02-26T02:31:08;22.55;;;12.88;;
85457;SDS011;75848;42.706;23.292;2024-02-26T02:33:36;23.25;;;13.57;;
85457;SDS011;75848;42.706;23.292;2024-02-26T02:36:02;27.95;;;14.02;;
85457;SDS011;75848;42.706;23.292;2024-02-26T02:38:28;25.00;;;13.60;;
85457;SDS011;75848;42.706;23.292;2024-02-26T02:40:55;29.15;;;14.43;;
85457;SDS011;75848;42.706;23.292;2024-02-26T02:43:21;25.67;;;13.25;;
85457;SDS011;75848;42.706;23.292;2024-02-26T02:45:46;23.75;;;12.82;;
85457;SDS011;75848;42.706;23.292;2024-02-26T02:48:12;24.27;;;13.60;;
85457;SDS011;75848;42.706;23.292;2024-02-26T02:50:38;25.27;;;14.52;;
85457;SDS011;75848;42.706;23.292;2024-02-26T02:53:03;28.73;;;13.13;;
85457;SDS011;75848;42.706;23.292;2024-02-26T02:55:30;28.38;;;14.57;;
85457;SDS011;75848;42.706;23.292;2024-02-26T02:57:56;25.70;;;13.88;;
85457;SDS011;75848;42.706;23.292;2024-02-26T03:00:22;23.65;;;13.35;;
85457;SDS011;75848;42.706;23.292;2024-02-26T03:02:50;23.98;;;14.38;;
85457;SDS011;75848;42.706;23.292;2024-02-26T03:05:16;27.92;;;13.45;;
85457;SDS011;75848;42.706;23.292;2024-02-26T03:07:42;25.90;;;13.63;;
85457;SDS011;75848;42.706;23.292;2024-02-26T03:10:08;24.92;;;14.23;;
85457;SDS011;75848;42.706;23.292;2024-02-26T03:12:34;27.42;;;13.48;;
85457;SDS011;75848;42.706;23.292;2024-02-26T03:15:01;28.48;;;15.60;;
85457;SDS011;75848;42.706;23.292;2024-02-26T03:17:30;25.73;;;13.77;;
85457;SDS011;75848;42.706;23.292;2024-02-26T03:19:57;26.67;;;14.48;;
85457;SDS011;75848;42.706;23.292;2024-02-26T03:22:23;28.63;;;14.85;;
85457;SDS011;75848;42.706;23.292;2024-02-26T03:24:49;26.50;;;14.10;;
85457;SDS011;75848;42.706;23.292;2024-02-26T03:27:15;24.73;;;14.20;;
85457;SDS011;75848;42.706;23.292;2024-02-26T03:29:43;25.40;;;14.52;;
85457;SDS011;75848;42.706;23.292;2024-02-26T03:32:11;29.50;;;14.82;;
85457;SDS011;75848;42.706;23.292;2024-02-26T03:34:36;27.92;;;15.07;;
85457;SDS011;75848;42.706;23.292;2024-02-26T03:37:04;27.17;;;14.10;;
85457;SDS011;75848;42.706;23.292;2024-02-26T03:39:30;24.55;;;14.20;;
85457;SDS011;75848;42.706;23.292;2024-02-26T03:41:56;26.33;;;14.05;;
85457;SDS011;75848;42.706;23.292;2024-02-26T03:44:22;19.67;;;12.45;;
85457;SDS011;75848;42.706;23.292;2024-02-26T03:46:48;25.77;;;13.82;;
85457;SDS011;75848;42.706;23.292;2024-02-26T03:49:13;21.27;;;12.27;;
85457;SDS011;75848;42.706;23.292;2024-02-26T03:51:39;28.30;;;14.20;;
85457;SDS011;75848;42.706;23.292;2024-02-26T03:54:04;22.90;;;13.00;;
85457;SDS011;75848;42.706;23.292;2024-02-26T03:56:31;26.08;;;12.93;;
85457;SDS011;75848;42.706;23.292;2024-02-26T03:58:58;21.23;;;12.82;;
85457;SDS011;75848;42.706;23.292;2024-02-26T04:01:25;24.75;;;14.75;;
85457;SDS011;75848;42.706;23.292;2024-02-26T04:03:50;23.48;;;13.73;;
85457;SDS011;75848;42.706;23.292;2024-02-26T04:06:17;25.05;;;13.82;;
85457;SDS011;75848;42.706;23.292;2024-02-26T04:08:45;26.05;;;14.93;;
85457;SDS011;75848;42.706;23.292;2024-02-26T04:11:11;26.85;;;13.82;;
85457;SDS011;75848;42.706;23.292;2024-02-26T04:13:37;27.05;;;14.23;;
85457;SDS011;75848;42.706;23.292;2024-02-26T04:16:06;24.75;;;13.55;;
85457;SDS011;75848;42.706;23.292;2024-02-26T04:18:33;21.15;;;12.98;;
85457;SDS011;75848;42.706;23.292;2024-02-26T04:20:59;31.38;;;13.02;;
85457;SDS011;75848;42.706;23.292;2024-02-26T04:23:24;24.15;;;14.02;;
85457;SDS011;75848;42.706;23.292;2024-02-26T04:25:50;25.17;;;12.95;;
85457;SDS011;75848;42.706;23.292;2024-02-26T04:28:15;22.27;;;12.98;;
85457;SDS011;75848;42.706;23.292;2024-02-26T04:30:41;25.95;;;15.52;;
85457;SDS011;75848;42.706;23.292;2024-02-26T04:33:08;31.65;;;18.10;;
85457;SDS011;75848;42.706;23.292;2024-02-26T04:35:34;31.85;;;15.45;;
85457;SDS011;75848;42.706;23.292;2024-02-26T04:38:01;33.55;;;15.63;;
85457;SDS011;75848;42.706;23.292;2024-02-26T04:40:28;26.77;;;14.77;;
85457;SDS011;75848;42.706;23.292;2024-02-26T04:42:54;28.65;;;14.10;;
85457;SDS011;75848;42.706;23.292;2024-02-26T04:45:19;24.63;;;14.13;;
85457;SDS011;75848;42.706;23.292;2024-02-26T04:47:45;33.28;;;16.00;;
85457;SDS011;75848;42.706;23.292;2024-02-26T04:50:13;26.92;;;14.60;;
85457;SDS011;75848;42.706;23.292;2024-02-26T04:52:39;24.52;;;13.52;;
85457;SDS011;75848;42.706;23.292;2024-02-26T04:55:06;26.05;;;14.38;;
85457;SDS011;75848;42.706;23.292;2024-02-26T04:57:32;30.58;;;16.02;;
85457;SDS011;75848;42.706;23.292;2024-02-26T04:59:57;29.65;;;15.15;;
85457;SDS011;75848;42.706;23.292;2024-02-26T05:02:24;28.05;;;16.20;;
85457;SDS011;75848;42.706;23.292;2024-02-26T05:04:50;24.75;;;14.43;;
85457;SDS011;75848;42.706;23.292;2024-02-26T05:07:15;34.10;;;17.50;;
85457;SDS011;75848;42.706;23.292;2024-02-26T05:09:42;33.85;;;17.70;;
85457;SDS011;75848;42.706;23.292;2024-02-26T05:12:09;40.92;;;19.45;;
85457;SDS011;75848;42.706;23.292;2024-02-26T05:14:34;44.05;;;20.20;;
85457;SDS011;75848;42.706;23.292;2024-02-26T05:17:00;32.83;;;18.67;;
85457;SDS011;75848;42.706;23.292;2024-02-26T05:19:26;46.70;;;19.65;;
85457;SDS011;75848;42.706;23.292;2024-02-26T05:21:52;43.35;;;21.20;;
85457;SDS011;75848;42.706;23.292;2024-02-26T05:24:17;38.10;;;21.23;;
85457;SDS011;75848;42.706;23.292;2024-02-26T05:26:43;41.53;;;20.38;;
85457;SDS011;75848;42.706;23.292;2024-02-26T05:29:10;38.95;;;19.95;;
85457;SDS011;75848;42.706;23.292;2024-02-26T05:31:35;46.17;;;21.27;;
85457;SDS011;75848;42.706;23.292;2024-02-26T05:34:01;38.42;;;23.42;;
85457;SDS011;75848;42.706;23.292;2024-02-26T05:36:27;36.38;;;20.77;;
85457;SDS011;75848;42.706;23.292;2024-02-26T05:38:58;37.00;;;19.90;;
85457;SDS011;75848;42.706;23.292;2024-02-26T05:41:24;35.47;;;17.48;;
85457;SDS011;75848;42.706;23.292;2024-02-26T05:43:51;33.78;;;17.98;;
85457;SDS011;75848;42.706;23.292;2024-02-26T05:46:18;34.88;;;19.30;;
85457;SDS011;75848;42.706;23.292;2024-02-26T05:48:47;34.42;;;20.10;;
85457;SDS011;75848;42.706;23.292;2024-02-26T05:51:15;31.02;;;16.38;;
85457;SDS011;75848;42.706;23.292;2024-02-26T05:53:41;37.05;;;17.10;;
85457;SDS011;75848;42.706;23.292;2024-02-26T05:56:08;34.88;;;18.20;;
85457;SDS011;75848;42.706;23.292;2024-02-26T05:58:38;31.20;;;16.85;;
85457;SDS011;75848;42.706;23.292;2024-02-26T06:01:04;29.80;;;17.55;;
85457;SDS011;75848;42.706;23.292;2024-02-26T06:03:29;35.13;;;17.48;;
85457;SDS011;75848;42.706;23.292;2024-02-26T06:05:55;32.03;;;17.40;;
85457;SDS011;75848;42.706;23.292;2024-02-26T06:08:20;31.33;;;16.52;;
85457;SDS011;75848;42.706;23.292;2024-02-26T06:10:46;29.20;;;15.80;;
85457;SDS011;75848;42.706;23.292;2024-02-26T06:13:11;30.67;;;16.20;;
85457;SDS011;75848;42.706;23.292;2024-02-26T06:15:37;31.08;;;15.93;;
85457;SDS011;75848;42.706;23.292;2024-02-26T06:18:02;29.30;;;15.60;;
85457;SDS011;75848;42.706;23.292;2024-02-26T06:20:28;34.45;;;17.17;;
85457;SDS011;75848;42.706;23.292;2024-02-26T06:22:54;28.77;;;15.38;;
85457;SDS011;75848;42.706;23.292;2024-02-26T06:25:21;28.45;;;16.75;;
85457;SDS011;75848;42.706;23.292;2024-02-26T06:27:46;33.13;;;15.93;;
85457;SDS011;75848;42.706;23.292;2024-02-26T06:30:12;32.65;;;16.95;;
85457;SDS011;75848;42.706;23.292;2024-02-26T06:32:38;37.97;;;18.92;;
85457;SDS011;75848;42.706;23.292;2024-02-26T06:35:06;27.17;;;16.42;;
85457;SDS011;75848;42.706;23.292;2024-02-26T06:37:34;27.63;;;16.00;;
85457;SDS011;75848;42.706;23.292;2024-02-26T06:40:00;34.17;;;16.52;;
85457;SDS011;75848;42.706;23.292;2024-02-26T06:44:55;34.97;;;16.67;;
85457;SDS011;75848;42.706;23.292;2024-02-26T06:47:21;34.90;;;17.17;;
85457;SDS011;75848;42.706;23.292;2024-02-26T06:49:46;31.73;;;18.45;;
85457;SDS011;75848;42.706;23.292;2024-02-26T06:52:12;38.22;;;19.05;;
85457;SDS011;75848;42.706;23.292;2024-02-26T06:54:37;38.22;;;18.20;;
85457;SDS011;75848;42.706;23.292;2024-02-26T06:57:04;42.70;;;19.60;;
85457;SDS011;75848;42.706;23.292;2024-02-26T06:59:34;33.72;;;19.42;;
85457;SDS011;75848;42.706;23.292;2024-02-26T07:02:00;45.35;;;19.95;;
85457;SDS011;75848;42.706;23.292;2024-02-26T07:04:27;40.60;;;19.83;;
85457;SDS011;75848;42.706;23.292;2024-02-26T07:06:53;30.48;;;17.83;;
85457;SDS011;75848;42.706;23.292;2024-02-26T07:09:20;31.27;;;18.05;;
85457;SDS011;75848;42.706;23.292;2024-02-26T07:11:47;36.80;;;18.90;;
85457;SDS011;75848;42.706;23.292;2024-02-26T07:14:14;32.40;;;18.88;;
85457;SDS011;75848;42.706;23.292;2024-02-26T07:16:42;43.50;;;19.98;;
85457;SDS011;75848;42.706;23.292;2024-02-26T07:19:08;38.92;;;18.83;;
85457;SDS011;75848;42.706;23.292;2024-02-26T07:21:35;34.10;;;19.00;;
85457;SDS011;75848;42.706;23.292;2024-02-26T07:24:02;38.00;;;18.35;;
85457;SDS011;75848;42.706;23.292;2024-02-26T07:26:27;38.58;;;19.23;;
85457;SDS011;75848;42.706;23.292;2024-02-26T07:28:55;31.60;;;16.13;;
85457;SDS011;75848;42.706;23.292;2024-02-26T07:31:22;32.70;;;18.45;;
85457;SDS011;75848;42.706;23.292;2024-02-26T07:33:49;38.28;;;19.02;;
85457;SDS011;75848;42.706;23.292;2024-02-26T07:36:16;40.30;;;19.88;;
85457;SDS011;75848;42.706;23.292;2024-02-26T07:38:44;35.53;;;19.45;;
85457;SDS011;75848;42.706;23.292;2024-02-26T07:41:09;34.75;;;20.52;;
85457;SDS011;75848;42.706;23.292;2024-02-26T07:43:41;33.20;;;19.63;;
85457;SDS011;75848;42.706;23.292;2024-02-26T07:46:07;38.90;;;21.90;;
85457;SDS011;75848;42.706;23.292;2024-02-26T07:48:36;39.28;;;21.38;;
85457;SDS011;75848;42.706;23.292;2024-02-26T07:51:04;44.05;;;21.88;;
85457;SDS011;75848;42.706;23.292;2024-02-26T07:53:32;39.47;;;20.92;;
85457;SDS011;75848;42.706;23.292;2024-02-26T07:55:57;38.75;;;20.55;;
85457;SDS011;75848;42.706;23.292;2024-02-26T07:58:26;40.38;;;19.85;;
85457;SDS011;75848;42.706;23.292;2024-02-26T08:00:52;42.95;;;21.08;;
85457;SDS011;75848;42.706;23.292;2024-02-26T08:03:19;39.33;;;20.80;;
85457;SDS011;75848;42.706;23.292;2024-02-26T08:05:46;38.60;;;19.80;;
85457;SDS011;75848;42.706;23.292;2024-02-26T08:08:18;40.20;;;19.58;;
85457;SDS011;75848;42.706;23.292;2024-02-26T08:10:43;40.42;;;19.90;;
85457;SDS011;75848;42.706;23.292;2024-02-26T08:13:09;39.28;;;20.73;;
85457;SDS011;75848;42.706;23.292;2024-02-26T08:15:35;44.22;;;21.05;;
85457;SDS011;75848;42.706;23.292;2024-02-26T08:18:03;39.42;;;19.15;;
85457;SDS011;75848;42.706;23.292;2024-02-26T08:20:30;36.95;;;18.58;;
85457;SDS011;75848;42.706;23.292;2024-02-26T08:22:58;34.22;;;19.67;;
85457;SDS011;75848;42.706;23.292;2024-02-26T08:25:24;37.08;;;18.38;;
85457;SDS011;75848;42.706;23.292;2024-02-26T08:27:51;36.72;;;19.35;;
85457;SDS011;75848;42.706;23.292;2024-02-26T08:30:17;40.30;;;20.40;;
85457;SDS011;75848;42.706;23.292;2024-02-26T08:32:45;36.08;;;21.27;;
85457;SDS011;75848;42.706;23.292;2024-02-26T08:35:14;32.53;;;19.42;;
85457;SDS011;75848;42.706;23.292;2024-02-26T08:37:43;35.08;;;20.88;;
85457;SDS011;75848;42.706;23.292;2024-02-26T08:40:14;37.17;;;19.48;;
85457;SDS011;75848;42.706;23.292;2024-02-26T08:42:46;37.08;;;19.80;;
85457;SDS011;75848;42.706;23.292;2024-02-26T08:45:13;37.58;;;20.45;;
85457;SDS011;75848;42.706;23.292;2024-02-26T08:47:41;32.53;;;17.15;;
85457;SDS011;75848;42.706;23.292;2024-02-26T08:50:14;35.50;;;18.40;;
85457;SDS011;75848;42.706;23.292;2024-02-26T08:52:45;31.52;;;16.02;;
85457;SDS011;75848;42.706;23.292;2024-02-26T08:55:15;27.30;;;15.15;;
85457;SDS011;75848;42.706;23.292;2024-02-26T09:00:16;24.23;;;12.95;;
85457;SDS011;75848;42.706;23.292;2024-02-26T09:02:44;29.30;;;13.95;;
85457;SDS011;75848;42.706;23.292;2024-02-26T09:05:11;23.60;;;14.38;;
85457;SDS011;75848;42.706;23.292;2024-02-26T09:07:37;22.70;;;11.52;;
85457;SDS011;75848;42.706;23.292;2024-02-26T09:10:05;28.35;;;10.65;;
85457;SDS011;75848;42.706;23.292;2024-02-26T09:12:31;19.83;;;10.05;;
85457;SDS011;75848;42.706;23.292;2024-02-26T09:15:00;19.63;;;10.82;;
85457;SDS011;75848;42.706;23.292;2024-02-26T09:17:26;23.98;;;14.45;;
85457;SDS011;75848;42.706;23.292;2024-02-26T09:19:54;29.77;;;14.07;;
85457;SDS011;75848;42.706;23.292;2024-02-26T09:22:21;30.48;;;14.75;;
85457;SDS011;75848;42.706;23.292;2024-02-26T09:24:51;21.92;;;12.48;;
85457;SDS011;75848;42.706;23.292;2024-02-26T09:27:19;27.60;;;13.93;;
85457;SDS011;75848;42.706;23.292;2024-02-26T09:29:45;26.35;;;13.48;;
85457;SDS011;75848;42.706;23.292;2024-02-26T09:32:17;33.65;;;14.70;;
85457;SDS011;75848;42.706;23.292;2024-02-26T09:34:44;20.77;;;11.80;;
85457;SDS011;75848;42.706;23.292;2024-02-26T09:37:11;24.45;;;11.25;;
85457;SDS011;75848;42.706;23.292;2024-02-26T09:39:38;20.10;;;11.25;;
85457;SDS011;75848;42.706;23.292;2024-02-26T09:42:05;16.00;;;9.07;;
85457;SDS011;75848;42.706;23.292;2024-02-26T09:44:36;15.65;;;7.22;;
85457;SDS011;75848;42.706;23.292;2024-02-26T09:47:07;16.10;;;6.93;;
85457;SDS011;75848;42.706;23.292;2024-02-26T09:49:36;16.48;;;7.28;;
85457;SDS011;75848;42.706;23.292;2024-02-26T09:52:06;8.93;;;5.05;;
85457;SDS011;75848;42.706;23.292;2024-02-26T09:54:34;8.30;;;5.88;;
85457;SDS011;75848;42.706;23.292;2024-02-26T09:57:03;13.25;;;5.60;;
85457;SDS011;75848;42.706;23.292;2024-02-26T09:59:45;12.43;;;5.70;;
85457;SDS011;75848;42.706;23.292;2024-02-26T10:02:47;8.15;;;5.50;;
85457;SDS011;75848;42.706;23.292;2024-02-26T10:05:18;8.52;;;4.75;;
85457;SDS011;75848;42.706;23.292;2024-02-26T10:07:45;7.60;;;4.80;;
85457;SDS011;75848;42.706;23.292;2024-02-26T10:10:11;8.15;;;5.28;;
85457;SDS011;75848;42.706;23.292;2024-02-26T10:12:40;9.25;;;4.90;;
85457;SDS011;75848;42.706;23.292;2024-02-26T10:15:08;8.45;;;5.28;;
85457;SDS011;75848;42.706;23.292;2024-02-26T10:17:34;7.10;;;4.93;;
85457;SDS011;75848;42.706;23.292;2024-02-26T10:20:17;9.18;;;4.70;;
85457;SDS011;75848;42.706;23.292;2024-02-26T10:22:46;5.85;;;3.97;;
85457;SDS011;75848;42.706;23.292;2024-02-26T10:25:17;7.93;;;4.22;;
85457;SDS011;75848;42.706;23.292;2024-02-26T10:27:43;7.97;;;4.13;;
85457;SDS011;75848;42.706;23.292;2024-02-26T10:30:21;10.48;;;4.30;;
85457;SDS011;75848;42.706;23.292;2024-02-26T10:32:48;6.95;;;3.60;;
85457;SDS011;75848;42.706;23.292;2024-02-26T10:35:15;7.30;;;4.40;;
85457;SDS011;75848;42.706;23.292;2024-02-26T10:37:43;11.50;;;5.45;;
85457;SDS011;75848;42.706;23.292;2024-02-26T10:40:13;7.45;;;4.80;;
85457;SDS011;75848;42.706;23.292;2024-02-26T10:42:40;6.50;;;4.68;;
85457;SDS011;75848;42.706;23.292;2024-02-26T10:45:28;9.10;;;4.65;;
85457;SDS011;75848;42.706;23.292;2024-02-26T10:47:54;7.38;;;4.45;;
85457;SDS011;75848;42.706;23.292;2024-02-26T10:50:21;6.63;;;4.00;;
85457;SDS011;75848;42.706;23.292;2024-02-26T10:52:49;6.28;;;4.57;;
85457;SDS011;75848;42.706;23.292;2024-02-26T10:55:17;4.40;;;3.67;;
85457;SDS011;75848;42.706;23.292;2024-02-26T10:57:47;9.35;;;4.57;;
85457;SDS011;75848;42.706;23.292;2024-02-26T11:00:18;5.43;;;4.25;;
85457;SDS011;75848;42.706;23.292;2024-02-26T11:02:46;8.38;;;4.90;;
85457;SDS011;75848;42.706;23.292;2024-02-26T11:05:16;10.75;;;4.85;;
85457;SDS011;75848;42.706;23.292;2024-02-26T11:07:46;10.07;;;4.53;;
85457;SDS011;75848;42.706;23.292;2024-02-26T11:10:16;5.43;;;4.25;;
85457;SDS011;75848;42.706;23.292;2024-02-26T11:12:44;7.18;;;4.60;;
85457;SDS011;75848;42.706;23.292;2024-02-26T11:15:47;7.53;;;4.07;;
85457;SDS011;75848;42.706;23.292;2024-02-26T11:18:15;7.88;;;4.57;;
85457;SDS011;75848;42.706;23.292;2024-02-26T11:20:44;4.18;;;3.35;;
85457;SDS011;75848;42.706;23.292;2024-02-26T11:23:13;5.72;;;4.32;;
85457;SDS011;75848;42.706;23.292;2024-02-26T11:28:15;7.75;;;4.13;;
85457;SDS011;75848;42.706;23.292;2024-02-26T11:30:47;5.95;;;4.07;;
85457;SDS011;75848;42.706;23.292;2024-02-26T11:33:18;4.97;;;3.55;;
85457;SDS011;75848;42.706;23.292;2024-02-26T11:35:44;6.00;;;4.32;;
85457;SDS011;75848;42.706;23.292;2024-02-26T11:38:24;6.95;;;3.83;;
85457;SDS011;75848;42.706;23.292;2024-02-26T11:40:52;10.07;;;4.30;;
85457;SDS011;75848;42.706;23.292;2024-02-26T11:46:24;8.98;;;3.90;;
85457;SDS011;75848;42.706;23.292;2024-02-26T11:49:03;6.45;;;4.50;;
85457;SDS011;75848;42.706;23.292;2024-02-26T11:51:52;8.38;;;4.38;;
85457;SDS011;75848;42.706;23.292;2024-02-26T11:54:39;8.55;;;4.43;;
85457;SDS011;75848;42.706;23.292;2024-02-26T12:05:32;6.30;;;3.30;;
85457;SDS011;75848;42.706;23.292;2024-02-26T12:08:06;3.78;;;3.03;;
85457;SDS011;75848;42.706;23.292;2024-02-26T12:10:33;6.40;;;3.22;;
85457;SDS011;75848;42.706;23.292;2024-02-26T12:13:12;3.90;;;3.28;;
85457;SDS011;75848;42.706;23.292;2024-02-26T12:15:42;7.40;;;3.65;;
85457;SDS011;75848;42.706;23.292;2024-02-26T12:18:09;4.93;;;3.60;;
85457;SDS011;75848;42.706;23.292;2024-02-26T12:20:38;5.80;;;3.80;;
85457;SDS011;75848;42.706;23.292;2024-02-26T12:23:03;12.45;;;4.07;;
85457;SDS011;75848;42.706;23.292;2024-02-26T12:25:30;8.60;;;4.15;;
85457;SDS011;75848;42.706;23.292;2024-02-26T12:27:58;3.35;;;2.53;;
85457;SDS011;75848;42.706;23.292;2024-02-26T12:30:26;11.00;;;3.60;;
85457;SDS011;75848;42.706;23.292;2024-02-26T12:32:55;4.22;;;2.92;;
85457;SDS011;75848;42.706;23.292;2024-02-26T12:35:28;6.05;;;3.63;;
85457;SDS011;75848;42.706;23.292;2024-02-26T12:37:58;4.72;;;2.90;;
85457;SDS011;75848;42.706;23.292;2024-02-26T12:40:48;5.60;;;3.22;;
85457;SDS011;75848;42.706;23.292;2024-02-26T12:43:18;5.03;;;3.75;;
85457;SDS011;75848;42.706;23.292;2024-02-26T12:45:44;9.90;;;3.65;;
85457;SDS011;75848;42.706;23.292;2024-02-26T12:48:15;5.13;;;3.45;;
85457;SDS011;75848;42.706;23.292;2024-02-26T12:50:44;5.57;;;3.10;;
85457;SDS011;75848;42.706;23.292;2024-02-26T12:53:28;5.78;;;3.00;;
85457;SDS011;75848;42.706;23.292;2024-02-26T12:56:18;4.43;;;2.80;;
85457;SDS011;75848;42.706;23.292;2024-02-26T12:58:44;5.95;;;3.60;;
85457;SDS011;75848;42.706;23.292;2024-02-26T13:01:14;3.78;;;3.05;;
85457;SDS011;75848;42.706;23.292;2024-02-26T13:03:43;8.48;;;3.42;;
85457;SDS011;75848;42.706;23.292;2024-02-26T13:06:13;6.70;;;3.17;;
85457;SDS011;75848;42.706;23.292;2024-02-26T13:08:40;3.40;;;2.92;;
85457;SDS011;75848;42.706;23.292;2024-02-26T13:11:08;7.65;;;3.33;;
85457;SDS011;75848;42.706;23.292;2024-02-26T13:13:35;5.43;;;3.28;;
85457;SDS011;75848;42.706;23.292;2024-02-26T13:16:06;5.03;;;3.63;;
85457;SDS011;75848;42.706;23.292;2024-02-26T13:18:40;5.70;;;3.15;;
85457;SDS011;75848;42.706;23.292;2024-02-26T13:21:11;6.72;;;3.08;;
85457;SDS011;75848;42.706;23.292;2024-02-26T13:23:38;4.35;;;3.10;;
85457;SDS011;75848;42.706;23.292;2024-02-26T13:26:06;4.05;;;2.90;;
85457;SDS011;75848;42.706;23.292;2024-02-26T13:28:34;5.05;;;3.05;;
85457;SDS011;75848;42.706;23.292;2024-02-26T13:31:01;5.97;;;3.15;;
85457;SDS011;75848;42.706;23.292;2024-02-26T13:35:57;5.55;;;3.08;;
85457;SDS011;75848;42.706;23.292;2024-02-26T13:38:24;4.45;;;3.30;;
85457;SDS011;75848;42.706;23.292;2024-02-26T13:40:54;4.90;;;3.40;;
85457;SDS011;75848;42.706;23.292;2024-02-26T13:43:21;5.85;;;3.25;;
85457;SDS011;75848;42.706;23.292;2024-02-26T13:45:47;8.20;;;3.10;;
85457;SDS011;75848;42.706;23.292;2024-02-26T13:48:16;7.35;;;3.10;;
85457;SDS011;75848;42.706;23.292;2024-02-26T13:50:42;6.88;;;4.00;;
85457;SDS011;75848;42.706;23.292;2024-02-26T13:53:08;9.50;;;3.30;;
85457;SDS011;75848;42.706;23.292;2024-02-26T13:55:34;7.90;;;3.65;;
85457;SDS011;75848;42.706;23.292;2024-02-26T13:58:00;6.85;;;3.60;;
85457;SDS011;75848;42.706;23.292;2024-02-26T14:00:29;7.88;;;3.22;;
85457;SDS011;75848;42.706;23.292;2024-02-26T14:02:59;5.40;;;3.30;;
85457;SDS011;75848;42.706;23.292;2024-02-26T14:05:24;4.05;;;3.65;;
85457;SDS011;75848;42.706;23.292;2024-02-26T14:07:53;5.15;;;2.60;;
85457;SDS011;75848;42.706;23.292;2024-02-26T14:10:19;4.40;;;2.80;;
85457;SDS011;75848;42.706;23.292;2024-02-26T14:12:46;5.90;;;2.65;;
85457;SDS011;75848;42.706;23.292;2024-02-26T14:15:13;6.50;;;2.90;;
85457;SDS011;75848;42.706;23.292;2024-02-26T14:17:39;4.32;;;2.97;;
85457;SDS011;75848;42.706;23.292;2024-02-26T14:20:05;5.57;;;2.95;;
85457;SDS011;75848;42.706;23.292;2024-02-26T14:22:35;6.63;;;3.10;;
85457;SDS011;75848;42.706;23.292;2024-02-26T14:25:01;5.10;;;2.63;;
85457;SDS011;75848;42.706;23.292;2024-02-26T14:27:29;3.53;;;3.05;;
85457;SDS011;75848;42.706;23.292;2024-02-26T14:29:55;6.63;;;3.30;;
85457;SDS011;75848;42.706;23.292;2024-02-26T14:32:20;4.88;;;2.72;;
85457;SDS011;75848;42.706;23.292;2024-02-26T14:34:47;13.52;;;3.25;;
85457;SDS011;75848;42.706;23.292;2024-02-26T14:37:12;5.55;;;3.03;;
85457;SDS011;75848;42.706;23.292;2024-02-26T14:39:38;6.20;;;2.80;;